Terminal Aerodrome Forecast
Issued by NWS

Home | Current Version | Previous Version | Text Only | Print | Product List | Glossary On
Versions: 1 2 3 4 5 6 7 8 9 10 11 12 13 14 15
000
FTUS45 KTFX 210500
TAFHVR
TAF
KHVR 210520Z 2106/2206 30006KT P6SM SCT050 BKN090
     FM210900 36007KT P6SM -SHRA SCT020 OVC040 PROB30 2116/2122 5SM
      -RA BR SCT015 OVC025=

USA.gov is the U.S. government's official web portal to all federal, state and local government web resources and services.